createdAt,value
2023-04-18T00:01:55.354Z,101269.11
2023-04-18T00:06:58.279Z,101278.10
2023-04-18T00:12:02.209Z,101267.67
2023-04-18T00:17:09.146Z,101266.93
2023-04-18T00:22:13.341Z,101267.23
2023-04-18T00:27:20.595Z,101267.52
2023-04-18T00:32:23.491Z,101266.58
2023-04-18T00:37:27.295Z,101274.26
2023-04-18T00:42:30.184Z,101270.64
2023-04-18T00:47:33.099Z,101274.12
2023-04-18T00:52:36.981Z,101272.85
2023-04-18T00:57:40.582Z,101269.34
2023-04-18T01:02:44.330Z,101270.88
2023-04-18T01:07:47.725Z,101269.75
2023-04-18T01:12:50.671Z,101274.89
2023-04-18T01:17:53.700Z,101275.77
2023-04-18T01:22:58.362Z,101271.66
2023-04-18T01:28:01.329Z,101268.94
2023-04-18T01:33:05.937Z,101270.39
2023-04-18T01:38:08.876Z,101274.83
2023-04-18T01:43:11.782Z,101281.52
2023-04-18T01:48:14.893Z,101282.28
2023-04-18T01:53:18.049Z,101284.79
2023-04-18T01:58:23.927Z,101286.07
2023-04-18T02:03:27.041Z,101286.38
2023-04-18T02:08:31.038Z,101282.98
2023-04-18T02:13:33.923Z,101281.98
2023-04-18T02:18:37.234Z,101281.16
2023-04-18T02:23:40.160Z,101282.95
2023-04-18T02:28:43.246Z,101280.52
2023-04-18T02:33:50.044Z,101276.85
2023-04-18T02:38:52.958Z,101274.70
2023-04-18T02:43:55.951Z,101272.01
2023-04-18T02:48:58.961Z,101271.59
2023-04-18T02:54:01.965Z,101277.63
2023-04-18T02:59:04.870Z,101276.01
2023-04-18T03:04:08.080Z,101277.21
2023-04-18T03:09:10.987Z,101277.34
2023-04-18T03:14:14.085Z,101273.34
2023-04-18T03:19:17.201Z,101276.48
2023-04-18T03:24:20.004Z,101279.79
2023-04-18T03:29:22.802Z,101277.38
2023-04-18T03:34:25.810Z,101278.77
2023-04-18T03:39:28.712Z,101281.38
2023-04-18T03:44:31.717Z,101281.38
2023-04-18T03:49:34.642Z,101282.61
2023-04-18T03:54:37.636Z,101277.41
2023-04-18T03:59:42.115Z,101281.81
2023-04-18T04:04:45.030Z,101285.00
2023-04-18T04:09:48.394Z,101281.64
2023-04-18T04:14:51.516Z,101292.51
2023-04-18T04:19:54.616Z,101293.95
2023-04-18T04:24:57.966Z,101291.98
2023-04-18T04:30:01.043Z,101292.46
2023-04-18T04:35:04.655Z,101291.27
2023-04-18T04:40:09.309Z,101300.27
2023-04-18T04:45:12.629Z,101299.80
2023-04-18T04:50:16.056Z,101307.23
2023-04-18T04:55:19.234Z,101311.85
2023-04-18T05:00:22.447Z,101315.50
2023-04-18T05:05:25.360Z,101318.29
2023-04-18T05:10:28.468Z,101324.89
2023-04-18T05:15:31.844Z,101327.72
2023-04-18T05:20:34.889Z,101334.09
2023-04-18T05:25:37.896Z,101335.77
2023-04-18T05:30:40.965Z,101330.19
2023-04-18T05:35:44.211Z,101334.90
2023-04-18T05:40:47.322Z,101331.41
2023-04-18T05:45:52.595Z,101327.09
2023-04-18T05:50:56.105Z,101323.42
2023-04-18T05:56:00.037Z,101333.66
2023-04-18T06:01:03.145Z,101326.02
2023-04-18T06:06:06.353Z,101324.98
2023-04-18T06:11:09.466Z,101321.29
2023-04-18T06:16:13.186Z,101318.75
2023-04-18T06:21:16.287Z,101315.79
2023-04-18T06:26:19.614Z,101316.08
2023-04-18T06:31:22.886Z,101318.45
2023-04-18T06:36:27.664Z,101311.84
2023-04-18T06:41:31.512Z,101314.34
2023-04-18T06:46:34.699Z,101315.25
2023-04-18T06:51:37.808Z,101320.02
2023-04-18T06:56:41.233Z,101320.95
2023-04-18T07:01:44.447Z,101321.07
2023-04-18T07:06:47.471Z,101319.21
2023-04-18T07:11:52.588Z,101317.65
2023-04-18T07:16:55.652Z,101322.23
2023-04-18T07:21:58.959Z,101312.76
2023-04-18T07:27:05.878Z,101311.30
2023-04-18T07:32:08.924Z,101312.28
2023-04-18T07:37:14.859Z,101317.67
2023-04-18T07:42:18.220Z,101312.56
2023-04-18T07:47:22.437Z,101314.47
2023-04-18T07:52:25.986Z,101321.71
2023-04-18T07:57:29.285Z,101311.35
2023-04-18T08:02:32.398Z,101321.16
2023-04-18T08:07:36.525Z,101319.30
2023-04-18T08:12:39.949Z,101322.61
2023-04-18T08:17:45.386Z,101316.48
2023-04-18T08:23:05.125Z,101313.80
2023-04-18T08:28:09.858Z,101315.08
2023-04-18T08:33:12.961Z,101315.31
2023-04-18T08:38:17.515Z,101314.16
2023-04-18T08:43:20.509Z,101309.34
2023-04-18T08:48:23.724Z,101312.02
2023-04-18T08:53:27.258Z,101311.73
2023-04-18T08:58:32.586Z,101310.34
2023-04-18T09:03:40.581Z,101305.21
2023-04-18T09:08:54.989Z,101296.75
2023-04-18T09:13:59.308Z,101291.55
2023-04-18T09:19:13.855Z,101292.89
2023-04-18T09:24:26.449Z,101284.55
2023-04-18T09:29:46.269Z,101283.45
2023-04-18T09:34:49.252Z,101282.94
2023-04-18T09:39:52.357Z,101281.95
2023-04-18T09:45:06.692Z,101282.10
2023-04-18T09:50:10.777Z,101278.85
2023-04-18T09:55:16.431Z,101271.73
2023-04-18T10:00:30.348Z,101275.02
2023-04-18T10:05:36.082Z,101275.38
2023-04-18T10:10:40.737Z,101272.11
2023-04-18T10:15:44.545Z,101264.83
2023-04-18T10:20:47.789Z,101252.76
2023-04-18T10:25:51.237Z,101256.49
2023-04-18T10:31:02.993Z,101248.55
2023-04-18T10:36:09.559Z,101247.94
2023-04-18T10:41:26.401Z,101240.89
2023-04-18T10:46:32.551Z,101237.21
2023-04-18T10:51:35.986Z,101240.60
2023-04-18T10:56:39.657Z,101234.55
2023-04-18T11:01:49.067Z,101242.72
2023-04-18T11:07:00.370Z,101244.50
2023-04-18T11:12:06.555Z,101238.80
2023-04-18T11:17:22.140Z,101227.65
2023-04-18T11:22:25.371Z,101215.27
2023-04-18T11:27:29.712Z,101205.32
2023-04-18T11:32:34.548Z,101207.70
2023-04-18T11:37:39.615Z,101195.44
2023-04-18T11:42:42.945Z,101204.24
2023-04-18T11:47:46.697Z,101188.38
2023-04-18T11:52:51.418Z,101192.87
2023-04-18T11:58:01.837Z,101195.26
2023-04-18T12:03:19.080Z,101194.41
2023-04-18T12:08:22.119Z,101183.90
2023-04-18T12:13:27.170Z,101178.88
2023-04-18T12:18:31.699Z,101174.24
2023-04-18T12:23:42.467Z,101172.05
2023-04-18T12:28:46.821Z,101173.18
2023-04-18T12:33:50.963Z,101169.53
2023-04-18T12:38:53.885Z,101168.77
2023-04-18T12:43:57.190Z,101169.48
2023-04-18T12:49:00.496Z,101161.48
2023-04-18T12:54:03.705Z,101153.77
2023-04-18T12:59:06.619Z,101152.78
2023-04-18T13:04:12.889Z,101141.91
2023-04-18T13:09:34.337Z,101127.80
2023-04-18T13:14:37.249Z,101136.77
2023-04-18T13:19:40.458Z,101134.70
2023-04-18T13:24:43.458Z,101137.95
2023-04-18T13:29:46.701Z,101135.85
2023-04-18T13:34:49.796Z,101133.43
2023-04-18T13:39:52.798Z,101130.53
2023-04-18T13:44:55.788Z,101131.29
2023-04-18T13:49:58.798Z,101133.79
2023-04-18T13:55:01.704Z,101130.54
2023-04-18T14:00:06.768Z,101131.17
2023-04-18T14:05:10.751Z,101128.73
2023-04-18T14:10:13.797Z,101128.66
2023-04-18T14:21:31.799Z,101122.04
2023-04-18T14:26:34.800Z,101124.41
2023-04-18T14:31:37.875Z,101120.60
2023-04-18T14:36:41.032Z,101122.75
2023-04-18T14:41:44.031Z,101134.06
2023-04-18T14:46:47.195Z,101124.36
2023-04-18T14:51:50.140Z,101127.83
2023-04-18T14:56:53.304Z,101131.02
2023-04-18T15:01:56.512Z,101130.66
2023-04-18T15:06:59.776Z,101123.33
2023-04-18T15:12:02.887Z,101133.90
2023-04-18T15:17:05.998Z,101138.39
2023-04-18T15:22:09.166Z,101132.84
2023-04-18T15:27:12.110Z,101134.21
2023-04-18T15:32:15.318Z,101128.70
2023-04-18T15:37:18.529Z,101128.77
2023-04-18T15:42:21.640Z,101123.52
2023-04-18T15:47:24.677Z,101124.57
2023-04-18T15:52:27.658Z,101126.31
2023-04-18T15:57:31.380Z,101125.98
2023-04-18T16:02:34.584Z,101122.17
2023-04-18T16:07:38.920Z,101122.02
2023-04-18T16:12:41.929Z,101118.00
2023-04-18T16:17:44.906Z,101117.31
2023-04-18T16:22:48.268Z,101112.45
2023-04-18T16:27:51.427Z,101109.99
2023-04-18T16:32:54.563Z,101103.00
2023-04-18T16:37:57.681Z,101104.61
2023-04-18T16:43:04.198Z,101102.54
2023-04-18T16:48:07.121Z,101098.00
2023-04-18T16:53:10.082Z,101099.28
2023-04-18T16:58:13.078Z,101100.04
2023-04-18T17:03:16.100Z,101100.09
2023-04-18T17:08:19.093Z,101097.48
2023-04-18T17:13:27.074Z,101093.50
2023-04-18T17:18:30.461Z,101100.36
2023-04-18T17:23:33.782Z,101102.31
2023-04-18T17:28:37.260Z,101103.80
2023-04-18T17:33:41.194Z,101107.91
2023-04-18T17:38:50.150Z,101104.86
2023-04-18T17:43:53.406Z,101106.38
2023-04-18T17:48:56.468Z,101114.55
2023-04-18T17:53:59.465Z,101124.29
2023-04-18T17:59:02.888Z,101122.80
2023-04-18T18:04:06.072Z,101129.18
2023-04-18T18:09:09.206Z,101136.27
2023-04-18T18:14:12.950Z,101139.50
2023-04-18T18:19:16.857Z,101132.58
2023-04-18T18:24:20.069Z,101131.62
2023-04-18T18:29:23.116Z,101130.47
2023-04-18T18:34:27.921Z,101126.30
2023-04-18T18:39:31.619Z,101123.89
2023-04-18T18:44:35.963Z,101116.23
2023-04-18T18:49:39.277Z,101109.45
2023-04-18T18:54:43.542Z,101106.17
2023-04-18T18:59:50.596Z,101109.69
2023-04-18T19:04:54.588Z,101109.36
2023-04-18T19:10:00.881Z,101109.02
2023-04-18T19:15:06.223Z,101102.22
2023-04-18T19:20:09.677Z,101094.04
2023-04-18T19:25:12.847Z,101091.60
2023-04-18T19:30:15.951Z,101095.43
2023-04-18T19:35:19.349Z,101092.99
2023-04-18T19:40:26.877Z,101090.54
2023-04-18T19:45:31.539Z,101085.64
2023-04-18T19:50:35.425Z,101079.00
2023-04-18T19:55:39.533Z,101074.96
2023-04-18T20:00:42.797Z,101067.73
2023-04-18T20:05:45.759Z,101065.59
2023-04-18T20:10:49.009Z,101062.21
2023-04-18T20:15:53.043Z,101055.52
2023-04-18T20:20:55.943Z,101054.91
2023-04-18T20:25:59.048Z,101053.06
2023-04-18T20:31:02.109Z,101046.98
2023-04-18T20:36:06.652Z,101044.73
2023-04-18T20:41:14.897Z,101046.13
2023-04-18T20:46:17.859Z,101041.30
2023-04-18T20:51:20.948Z,101038.40
2023-04-18T20:56:23.986Z,101038.61
2023-04-18T21:01:27.020Z,101041.61
2023-04-18T21:06:30.063Z,101040.10
2023-04-18T21:11:33.072Z,101034.55
2023-04-18T21:16:39.453Z,101030.59
2023-04-18T21:21:42.582Z,101027.00
2023-04-18T21:26:45.675Z,101026.41
2023-04-18T21:31:50.386Z,101019.60
2023-04-18T21:36:53.324Z,101018.94
2023-04-18T21:41:57.350Z,101021.02
2023-04-18T21:47:00.277Z,101010.60
2023-04-18T21:52:03.263Z,101010.87
2023-04-18T21:57:06.898Z,101006.05
2023-04-18T22:02:09.909Z,100998.02
2023-04-18T22:07:15.808Z,100996.40
2023-04-18T22:12:18.776Z,100989.42
2023-04-18T22:17:22.193Z,100991.23
2023-04-18T22:22:25.402Z,100987.58
2023-04-18T22:27:28.410Z,100989.25
2023-04-18T22:32:31.424Z,100977.02
2023-04-18T22:37:34.536Z,100969.95
2023-04-18T22:42:38.709Z,100964.24
2023-04-18T22:47:41.946Z,100960.65
2023-04-18T22:52:45.082Z,100958.33
2023-04-18T22:57:48.085Z,100950.29
2023-04-18T23:02:51.937Z,100942.44
2023-04-18T23:07:55.350Z,100940.65
2023-04-18T23:12:58.335Z,100935.40
2023-04-18T23:18:01.360Z,100928.43
2023-04-18T23:23:04.453Z,100921.67
2023-04-18T23:28:08.073Z,100919.61
2023-04-18T23:33:11.133Z,100913.70
2023-04-18T23:38:14.084Z,100907.94
2023-04-18T23:43:17.000Z,100896.27
2023-04-18T23:48:19.910Z,100888.40
2023-04-18T23:53:23.869Z,100880.54
2023-04-18T23:58:26.739Z,100873.08
